Time;durP1;ratioP1;P1;durP2;ratioP2;P2;SDS_P1;SDS_P2;PMS_P1;PMS_P2;Temp;Humidity;BMP_temperature;BMP_pressure;BME280_temperature;BME280_humidity;BME280_pressure;Samples;Min_cycle;Max_cycle;Signal;HPM_P1;HPM_P2
2023/03/15 05:22:32;;;;;;;1.85;1.52;;;;;;;0.28;100.00;100320.59;5088886;28;20856;-70
2023/03/15 05:25:16;;;;;;;1.95;1.20;;;;;;;0.24;100.00;100325.19;5089005;28;20047;-69
2023/03/15 05:28:04;;;;;;;2.28;1.80;;;;;;;0.21;100.00;100325.41;5087847;28;20036;-70
2023/03/15 05:30:41;;;;;;;8.88;2.10;;;;;;;0.24;100.00;100333.03;5087438;28;20397;-69
2023/03/15 05:33:33;;;;;;;4.53;2.10;;;;;;;0.24;100.00;100334.81;5068692;28;20133;-69
2023/03/15 05:36:24;;;;;;;4.60;1.90;;;;;;;0.24;100.00;100340.91;5072474;28;20100;-70
2023/03/15 05:39:17;;;;;;;3.33;2.03;;;;;;;0.23;100.00;100339.22;5087620;28;20044;-70
2023/03/15 05:42:01;;;;;;;3.10;2.28;;;;;;;0.23;100.00;100343.63;5088840;28;20460;-68
2023/03/15 05:44:45;;;;;;;2.28;1.80;;;;;;;0.21;100.00;100341.13;5089883;28;20507;-69
2023/03/15 05:47:16;;;;;;;3.63;1.52;;;;;;;0.16;100.00;100337.97;5081344;28;20082;-70
2023/03/15 05:49:59;;;;;;;1.77;1.27;;;;;;;0.20;100.00;100339.44;5087702;28;20036;-70
2023/03/15 05:52:42;;;;;;;3.10;2.05;;;;;;;0.23;100.00;100341.84;5083874;28;20128;-71
2023/03/15 05:55:19;;;;;;;3.33;1.65;;;;;;;0.19;100.00;100336.91;5087440;28;20039;-72
2023/03/15 05:58:14;;;;;;;2.08;1.50;;;;;;;0.21;100.00;100335.03;5075269;28;20170;-71
2023/03/15 06:00:54;;;;;;;3.85;2.17;;;;;;;0.26;100.00;100338.16;5087568;28;20041;-72
2023/03/15 06:03:38;;;;;;;2.83;1.90;;;;;;;0.25;100.00;100339.94;5087170;28;20067;-71
2023/03/15 06:06:12;;;;;;;2.55;1.52;;;;;;;0.31;100.00;100337.84;5087434;28;20097;-71
2023/03/15 06:08:40;;;;;;;2.38;1.75;;;;;;;0.40;100.00;100345.94;5087658;28;20059;-70
2023/03/15 06:11:05;;;;;;;3.95;1.67;;;;;;;0.45;100.00;100343.81;5089534;28;20508;-71
2023/03/15 06:13:31;;;;;;;2.60;1.70;;;;;;;0.49;100.00;100349.69;5087000;28;20497;-70
2023/03/15 06:15:58;;;;;;;1.55;1.45;;;;;;;0.52;100.00;100354.72;5087339;28;20040;-70
2023/03/15 06:18:24;;;;;;;3.80;1.67;;;;;;;0.62;100.00;100357.56;5087058;28;20071;-70
2023/03/15 06:20:50;;;;;;;2.15;1.73;;;;;;;0.71;100.00;100356.91;5086992;28;20038;-69
2023/03/15 06:23:17;;;;;;;1.88;1.42;;;;;;;0.81;100.00;100364.03;5086925;28;20044;-70
2023/03/15 06:25:46;;;;;;;7.65;2.13;;;;;;;0.89;100.00;100360.00;5087063;28;20032;-69
2023/03/15 06:28:12;;;;;;;4.40;1.67;;;;;;;1.04;100.00;100367.66;5086927;28;20040;-68
2023/03/15 06:30:42;;;;;;;1.52;1.15;;;;;;;1.17;100.00;100372.84;5087122;28;20119;-69
2023/03/15 06:33:08;;;;;;;3.13;1.30;;;;;;;1.27;100.00;100373.84;5077289;28;20581;-68
2023/03/15 06:35:34;;;;;;;1.45;1.02;;;;;;;1.45;100.00;100382.19;5056817;28;20051;-69
2023/03/15 06:38:00;;;;;;;3.58;1.55;;;;;;;1.54;100.00;100381.50;5073238;28;20463;-71
2023/03/15 06:40:26;;;;;;;3.67;2.00;;;;;;;1.76;100.00;100391.28;5073276;28;20036;-70
2023/03/15 06:42:51;;;;;;;3.78;1.50;;;;;;;1.93;100.00;100384.78;5072923;28;20094;-70
2023/03/15 06:45:19;;;;;;;4.47;2.00;;;;;;;2.08;100.00;100390.66;5073178;28;20115;-68
2023/03/15 06:47:45;;;;;;;5.93;1.50;;;;;;;2.22;100.00;100395.75;5073546;28;20067;-70
2023/03/15 06:50:11;;;;;;;2.60;1.60;;;;;;;2.27;100.00;100398.00;5073074;28;20043;-70
2023/03/15 06:52:37;;;;;;;4.80;1.50;;;;;;;2.47;100.00;100401.75;5072835;28;20032;-72
2023/03/15 06:55:04;;;;;;;4.28;1.60;;;;;;;2.58;100.00;100404.38;5073171;28;20044;-70
2023/03/15 06:57:29;;;;;;;1.92;1.38;;;;;;;2.66;100.00;100394.94;5072948;28;20127;-69
2023/03/15 06:59:55;;;;;;;2.40;1.13;;;;;;;2.79;100.00;100391.34;5074370;28;20537;-71
2023/03/15 07:02:21;;;;;;;3.92;1.48;;;;;;;2.90;100.00;100394.00;5073870;28;20057;-70
2023/03/15 07:04:46;;;;;;;1.63;1.23;;;;;;;3.05;100.00;100410.38;5072887;28;20508;-70
2023/03/15 07:07:12;;;;;;;4.57;1.25;;;;;;;3.09;100.00;100406.53;5074111;28;20043;-71
2023/03/15 07:09:39;;;;;;;2.20;1.48;;;;;;;3.24;99.95;100410.59;5074094;28;20041;-71
2023/03/15 07:12:06;;;;;;;1.98;1.40;;;;;;;3.36;96.77;100408.78;5073901;28;20056;-71
2023/03/15 07:14:32;;;;;;;5.60;2.30;;;;;;;3.65;100.00;100412.53;5074078;28;20048;-70
2023/03/15 07:16:58;;;;;;;1.50;1.40;;;;;;;3.72;97.56;100407.59;5073947;28;20028;-71
2023/03/15 07:19:23;;;;;;;2.35;1.42;;;;;;;3.61;95.95;100371.59;5074155;28;20059;-70
2023/03/15 07:21:49;;;;;;;3.25;1.30;;;;;;;3.80;92.20;100403.38;5073895;28;20111;-71
2023/03/15 07:24:14;;;;;;;1.98;1.50;;;;;;;3.85;90.39;100413.53;5072271;28;20051;-71
2023/03/15 07:26:39;;;;;;;1.50;1.40;;;;;;;3.90;91.95;100406.06;5073736;28;20055;-71
2023/03/15 07:29:05;;;;;;;2.83;1.23;;;;;;;3.96;91.37;100410.84;5073750;28;20501;-71
2023/03/15 07:31:30;;;;;;;3.22;1.67;;;;;;;4.03;89.72;100411.16;5073614;28;20032;-52
2023/03/15 07:33:56;;;;;;;1.88;1.30;;;;;;;4.03;87.93;100405.91;5073237;28;20033;-52
2023/03/15 07:36:21;;;;;;;4.45;1.30;;;;;;;4.05;91.32;100414.53;5072321;28;20482;-56
2023/03/15 07:38:47;;;;;;;2.63;1.67;;;;;;;4.03;89.22;100412.00;5073580;28;20074;-52
2023/03/15 07:41:12;;;;;;;4.55;1.30;;;;;;;4.15;87.53;100419.88;5073467;28;20382;-55
2023/03/15 07:43:44;;;;;;;2.17;1.05;;;;;;;4.35;87.78;100406.69;5071229;28;20558;-63
2023/03/15 07:46:13;;;;;;;2.67;1.40;;;;;;;4.50;87.85;100415.13;5071717;28;20032;-64
2023/03/15 07:48:38;;;;;;;1.90;1.58;;;;;;;4.65;88.21;100412.13;5073328;28;20039;-64
2023/03/15 07:51:04;;;;;;;2.10;1.20;;;;;;;4.71;85.28;100409.81;5073250;28;20093;-65
2023/03/15 07:53:29;;;;;;;0.95;0.90;;;;;;;4.83;84.32;100406.13;5073005;28;20032;-64
2023/03/15 07:55:55;;;;;;;1.70;1.02;;;;;;;4.77;83.40;100419.84;5071795;28;20401;-64
2023/03/15 07:58:20;;;;;;;1.75;1.10;;;;;;;4.82;83.74;100422.91;5073193;28;20040;-65
2023/03/15 08:00:46;;;;;;;3.72;1.08;;;;;;;4.89;84.90;100418.78;5073103;28;20025;-65
2023/03/15 08:03:11;;;;;;;2.92;1.40;;;;;;;4.90;86.08;100420.44;5072717;28;20401;-64
2023/03/15 08:05:37;;;;;;;6.28;1.30;;;;;;;4.92;82.38;100414.19;5072852;28;20491;-64
2023/03/15 08:08:02;;;;;;;3.30;1.42;;;;;;;4.83;80.45;100419.31;5072929;28;20037;-64
2023/03/15 08:10:28;;;;;;;3.20;1.50;;;;;;;4.88;81.84;100419.72;5072766;28;20039;-65
2023/03/15 08:12:53;;;;;;;1.00;0.88;;;;;;;4.95;83.34;100422.69;5072509;28;20036;-63
2023/03/15 08:15:19;;;;;;;8.23;1.63;;;;;;;5.15;82.06;100420.94;5072806;28;20028;-64
2023/03/15 08:17:47;;;;;;;2.10;1.05;;;;;;;5.13;81.55;100420.25;5072636;28;20060;-63
2023/03/15 08:20:13;;;;;;;2.58;1.30;;;;;;;5.33;84.00;100419.31;5072609;28;20040;-63
2023/03/15 08:22:43;;;;;;;2.10;1.10;;;;;;;5.51;78.54;100427.44;5072307;28;20093;-63
2023/03/15 08:25:10;;;;;;;1.52;1.00;;;;;;;5.67;75.70;100429.53;5072591;28;20037;-63
2023/03/15 08:27:36;;;;;;;5.00;0.95;;;;;;;5.89;76.89;100426.66;5072563;28;20036;-63
2023/03/15 08:30:02;;;;;;;2.67;1.30;;;;;;;5.89;73.52;100431.13;5072506;28;20036;-63
2023/03/15 08:32:27;;;;;;;2.22;0.93;;;;;;;5.67;68.66;100422.47;5071970;28;20033;-63
2023/03/15 08:34:53;;;;;;;1.17;1.08;;;;;;;5.62;71.11;100429.97;5072500;28;20040;-64
2023/03/15 08:37:18;;;;;;;1.48;1.08;;;;;;;5.61;69.38;100425.66;5072303;28;20432;-64
2023/03/15 08:39:44;;;;;;;0.98;0.82;;;;;;;5.96;75.67;100427.81;5072363;28;20555;-64
2023/03/15 08:42:09;;;;;;;0.90;0.88;;;;;;;6.16;76.63;100433.91;5072145;28;20033;-62
2023/03/15 08:44:35;;;;;;;3.28;1.30;;;;;;;6.38;75.96;100426.66;5071161;28;20400;-64
2023/03/15 08:47:00;;;;;;;1.67;0.95;;;;;;;6.44;67.00;100424.25;5072480;28;20039;-64
2023/03/15 08:49:26;;;;;;;4.80;1.05;;;;;;;6.55;66.13;100425.94;5072346;28;20048;-63
2023/03/15 08:51:51;;;;;;;0.70;0.70;;;;;;;6.61;64.16;100437.75;5070856;28;20037;-63
2023/03/15 08:54:17;;;;;;;1.80;0.73;;;;;;;6.74;64.82;100428.53;5072200;28;20036;-63
2023/03/15 08:56:42;;;;;;;0.70;0.70;;;;;;;6.80;64.80;100435.91;5072006;28;20551;-63
2023/03/15 08:59:08;;;;;;;1.33;0.95;;;;;;;6.91;62.89;100431.38;5072121;28;20115;-63
2023/03/15 09:01:34;;;;;;;1.38;1.00;;;;;;;7.14;64.28;100429.22;5071954;28;20101;-63
2023/03/15 09:04:00;;;;;;;2.20;0.70;;;;;;;7.31;60.73;100437.22;5071766;28;20032;-63
2023/03/15 09:06:27;;;;;;;0.68;0.68;;;;;;;7.51;62.90;100440.59;5071940;28;20473;-63
2023/03/15 09:08:52;;;;;;;0.65;0.65;;;;;;;7.64;60.87;100442.88;5071976;28;20093;-65
2023/03/15 09:11:18;;;;;;;0.73;0.50;;;;;;;7.56;58.81;100454.25;5071906;28;20048;-64
2023/03/15 09:13:44;;;;;;;1.08;0.65;;;;;;;7.65;56.69;100433.94;5071673;28;20068;-64
2023/03/15 09:16:09;;;;;;;1.30;0.70;;;;;;;7.57;57.92;100447.13;5071849;28;20123;-65
2023/03/15 09:18:34;;;;;;;1.00;0.80;;;;;;;7.59;57.56;100453.09;5071892;28;20485;-63
2023/03/15 09:21:00;;;;;;;1.75;0.73;;;;;;;7.77;59.25;100448.66;5071661;28;20037;-66
2023/03/15 09:23:26;;;;;;;2.10;0.82;;;;;;;7.72;55.87;100434.19;5071662;28;20051;-64
2023/03/15 09:25:51;;;;;;;1.25;0.85;;;;;;;8.00;59.33;100445.56;5071807;28;20063;-65
2023/03/15 09:28:17;;;;;;;1.27;0.70;;;;;;;8.30;60.66;100444.34;5071800;28;20115;-64
2023/03/15 09:30:42;;;;;;;0.60;0.60;;;;;;;8.52;58.56;100451.00;5071665;28;20397;-65
2023/03/15 09:33:08;;;;;;;0.75;0.52;;;;;;;8.62;54.76;100455.22;5071539;28;20094;-64
2023/03/15 09:35:34;;;;;;;0.88;0.68;;;;;;;8.68;56.09;100456.44;5071545;28;20127;-64
2023/03/15 09:38:02;;;;;;;0.82;0.80;;;;;;;9.03;58.57;100454.63;5072263;28;20036;-65
2023/03/15 09:40:31;;;;;;;1.88;0.70;;;;;;;9.14;55.30;100449.88;5071662;28;20028;-65
2023/03/15 09:43:06;;;;;;;1.15;0.63;;;;;;;9.22;52.87;100451.75;5070201;28;20070;-63
2023/03/15 09:46:09;;;;;;;2.45;0.88;;;;;;;9.32;53.26;100456.91;5071368;28;20040;-65
2023/03/15 09:48:50;;;;;;;5.32;0.93;;;;;;;9.65;51.91;100456.06;5071609;28;20032;-62
2023/03/15 09:51:46;;;;;;;0.52;0.40;;;;;;;9.83;52.50;100463.91;5071485;28;20489;-65
2023/03/15 09:54:17;;;;;;;1.45;0.88;;;;;;;9.81;50.38;100465.06;5071310;28;20032;-64
2023/03/15 09:56:52;;;;;;;0.80;0.60;;;;;;;10.19;49.85;100466.31;5071482;28;20102;-65
2023/03/15 09:59:21;;;;;;;0.50;0.50;;;;;;;10.38;50.02;100471.34;5071517;28;20497;-64
2023/03/15 10:01:50;;;;;;;1.23;0.80;;;;;;;10.51;48.70;100469.00;5071439;28;20082;-64
2023/03/15 10:04:27;;;;;;;1.05;0.60;;;;;;;10.23;48.96;100465.81;5071171;28;20059;-65
2023/03/15 10:06:55;;;;;;;1.65;1.00;;;;;;;10.60;48.85;100465.31;5071630;28;20426;-64
2023/03/15 10:09:23;;;;;;;0.90;0.60;;;;;;;11.01;49.48;100454.56;5075034;28;20040;-64
2023/03/15 10:12:10;;;;;;;1.33;0.68;;;;;;;11.26;50.70;100465.16;5075120;28;20033;-64
2023/03/15 10:14:53;;;;;;;1.02;0.80;;;;;;;11.57;48.53;100466.03;5074798;28;20043;-65
2023/03/15 10:17:27;;;;;;;2.85;0.80;;;;;;;11.61;44.89;100462.03;5074884;28;20446;-64
2023/03/15 10:20:00;;;;;;;3.55;0.70;;;;;;;12.01;45.97;100462.81;5075194;28;20040;-64
2023/03/15 10:22:35;;;;;;;0.68;0.60;;;;;;;11.93;46.09;100469.06;5074696;28;20021;-65
2023/03/15 10:25:27;;;;;;;1.10;0.73;;;;;;;11.40;45.50;100462.59;5074921;28;20036;-65
2023/03/15 10:27:58;;;;;;;1.42;0.60;;;;;;;11.21;47.07;100462.19;5069055;28;20091;-64
2023/03/15 10:30:26;;;;;;;1.95;0.95;;;;;;;10.87;46.64;100473.94;5074797;28;20033;-65
2023/03/15 10:32:58;;;;;;;0.40;0.40;;;;;;;10.63;47.87;100471.31;5074422;28;20489;-65
2023/03/15 10:35:24;;;;;;;0.52;0.50;;;;;;;10.39;50.26;100482.81;5074641;28;20036;-63
2023/03/15 10:37:49;;;;;;;4.65;1.00;;;;;;;10.16;52.83;100479.91;5074665;28;20062;-65
2023/03/15 10:40:35;;;;;;;2.45;0.80;;;;;;;10.08;51.22;100478.09;5074551;28;20126;-65
2023/03/15 10:43:01;;;;;;;0.47;0.47;;;;;;;9.67;52.89;100477.19;5074223;28;20436;-65
2023/03/15 10:45:27;;;;;;;1.35;0.80;;;;;;;9.66;52.99;100473.69;5074490;28;20025;-64
2023/03/15 10:47:54;;;;;;;1.00;0.90;;;;;;;9.36;48.98;100475.06;5074450;28;20032;-63
2023/03/15 10:50:32;;;;;;;0.60;0.40;;;;;;;9.40;49.41;100476.41;5074436;28;20045;-65
2023/03/15 10:53:01;;;;;;;1.55;0.40;;;;;;;9.06;49.16;100483.53;5074165;28;20032;-64
2023/03/15 10:55:35;;;;;;;0.45;0.40;;;;;;;9.05;47.71;100481.88;5074386;28;20401;-65
2023/03/15 10:58:23;;;;;;;0.77;0.65;;;;;;;9.21;47.83;100477.50;5074383;28;20036;-65
2023/03/15 11:00:51;;;;;;;0.52;0.50;;;;;;;9.12;47.17;100472.28;5074350;28;20067;-65
2023/03/15 11:03:22;;;;;;;0.68;0.68;;;;;;;8.97;48.22;100469.38;5073874;28;20036;-63
2023/03/15 11:05:52;;;;;;;0.43;0.43;;;;;;;8.87;49.35;100484.63;5074095;28;20040;-64
2023/03/15 11:08:23;;;;;;;0.57;0.57;;;;;;;8.46;50.82;100489.59;5074113;28;20115;-64
2023/03/15 11:10:57;;;;;;;1.35;0.68;;;;;;;8.46;51.04;100497.56;5073977;28;20065;-64
2023/03/15 11:13:25;;;;;;;0.75;0.75;;;;;;;8.26;52.75;100490.72;5073724;28;20044;-65
2023/03/15 11:16:03;;;;;;;0.50;0.50;;;;;;;7.94;54.31;100486.78;5073799;28;20032;-65
2023/03/15 11:18:57;;;;;;;0.85;0.70;;;;;;;7.62;55.46;100492.56;5074024;28;20116;-65
2023/03/15 11:21:29;;;;;;;1.13;0.50;;;;;;;7.50;58.66;100493.75;5071655;28;20052;-65
2023/03/15 11:23:57;;;;;;;0.88;0.50;;;;;;;7.34;61.01;100508.47;5073522;28;20068;-65
2023/03/15 11:26:25;;;;;;;0.95;0.75;;;;;;;7.11;63.32;100501.00;5073792;28;20032;-64
2023/03/15 11:28:55;;;;;;;1.23;0.60;;;;;;;7.14;65.58;100493.63;5073805;28;20119;-64
2023/03/15 11:31:25;;;;;;;1.00;0.60;;;;;;;7.17;65.34;100492.50;5073705;28;20055;-64
2023/03/15 11:33:59;;;;;;;1.27;0.88;;;;;;;7.16;65.14;100496.94;5073345;28;20040;-64
2023/03/15 11:36:29;;;;;;;0.50;0.43;;;;;;;7.10;66.87;100500.19;5073550;28;20060;-64
2023/03/15 11:38:57;;;;;;;0.38;0.38;;;;;;;6.92;68.07;100488.69;5073607;28;20040;-64
2023/03/15 11:41:28;;;;;;;2.55;0.77;;;;;;;6.98;67.01;100509.31;5073808;28;20052;-64
2023/03/15 11:44:15;;;;;;;0.82;0.47;;;;;;;6.96;69.35;100505.94;5073459;28;20086;-63
2023/03/15 11:47:07;;;;;;;0.52;0.52;;;;;;;6.57;75.33;100516.59;5073417;28;20033;-64
2023/03/15 11:49:59;;;;;;;1.83;0.60;;;;;;;6.38;79.03;100524.56;5073387;28;20029;-64
2023/03/15 11:52:27;;;;;;;1.27;0.70;;;;;;;6.15;80.87;100516.06;5071606;28;20056;-64
2023/03/15 11:54:58;;;;;;;0.50;0.50;;;;;;;6.05;82.14;100516.03;5073222;28;20044;-64
2023/03/15 11:57:46;;;;;;;0.70;0.70;;;;;;;5.79;85.32;100514.84;5072997;28;20477;-63
2023/03/15 12:00:25;;;;;;;0.93;0.65;;;;;;;5.86;88.74;100511.53;5073220;28;20068;-64
2023/03/15 12:02:56;;;;;;;2.65;0.68;;;;;;;6.00;90.48;100515.63;5072998;28;20394;-64
2023/03/15 12:05:46;;;;;;;1.27;0.65;;;;;;;5.84;90.58;100510.00;5072944;28;20127;-64
2023/03/15 12:08:41;;;;;;;2.47;0.70;;;;;;;6.02;90.50;100511.03;5073028;28;20493;-63
2023/03/15 12:11:21;;;;;;;0.95;0.47;;;;;;;6.03;89.54;100512.72;5069004;28;20064;-62
2023/03/15 12:14:25;;;;;;;0.52;0.52;;;;;;;6.13;89.46;100518.00;5072538;28;20032;-63
2023/03/15 12:16:55;;;;;;;0.70;0.50;;;;;;;6.15;90.94;100524.00;5071504;28;20080;-63
2023/03/15 12:19:24;;;;;;;0.68;0.60;;;;;;;6.24;88.81;100513.41;5071665;28;20036;-64
2023/03/15 12:21:56;;;;;;;1.92;0.95;;;;;;;6.37;88.43;100522.88;5072602;28;20461;-64
2023/03/15 12:24:26;;;;;;;1.60;0.82;;;;;;;6.69;88.14;100515.47;5072169;28;20028;-64
2023/03/15 12:27:20;;;;;;;0.68;0.65;;;;;;;6.88;85.99;100519.91;5072414;28;20123;-64
2023/03/15 12:29:56;;;;;;;1.70;0.50;;;;;;;7.04;84.73;100511.34;5063154;28;20063;-65
2023/03/15 12:32:21;;;;;;;3.22;0.68;;;;;;;7.14;82.08;100508.69;5072115;28;20540;-64
2023/03/15 12:34:50;;;;;;;0.73;0.50;;;;;;;7.39;80.80;100504.56;5072314;28;20060;-64
2023/03/15 12:37:37;;;;;;;0.82;0.70;;;;;;;7.45;82.08;100518.06;5071088;28;20037;-65
2023/03/15 12:40:14;;;;;;;0.68;0.60;;;;;;;7.66;78.88;100504.53;5071460;28;20493;-65
2023/03/15 12:42:39;;;;;;;1.08;0.80;;;;;;;7.67;79.48;100510.69;5062945;28;20111;-64
2023/03/15 12:45:14;;;;;;;0.98;0.68;;;;;;;7.73;79.40;100508.28;5060282;28;20174;-63
2023/03/15 12:47:48;;;;;;;1.15;0.80;;;;;;;7.86;79.82;100515.88;5060811;28;20033;-64
2023/03/15 12:50:45;;;;;;;1.58;1.02;;;;;;;7.95;78.44;100509.66;5061399;28;20039;-65
2023/03/15 12:53:26;;;;;;;1.60;1.08;;;;;;;7.65;77.41;100513.50;5061562;28;20064;-64
2023/03/15 12:55:52;;;;;;;2.30;1.20;;;;;;;7.76;76.60;100510.66;5061654;28;20091;-63
2023/03/15 12:58:24;;;;;;;0.80;0.80;;;;;;;7.72;74.96;100508.44;5060819;28;20033;-63
2023/03/15 13:00:52;;;;;;;1.50;1.02;;;;;;;7.95;75.33;100507.00;5059263;28;20084;-64
2023/03/15 13:03:20;;;;;;;1.13;1.02;;;;;;;7.91;76.06;100512.78;5066362;28;20032;-64
2023/03/15 13:06:05;;;;;;;;;;;;;;;8.17;77.12;100511.06;5072373;28;20036;-64
2023/03/15 13:08:47;;;;;;;0.95;0.80;;;;;;;8.57;72.95;100500.00;5072044;28;19916;-64
2023/03/15 13:11:32;;;;;;;1.98;0.77;;;;;;;8.84;69.79;100491.06;5071905;28;20052;-64
2023/03/15 13:14:03;;;;;;;0.98;0.80;;;;;;;8.93;68.54;100489.28;5071579;28;20116;-65
2023/03/15 13:16:43;;;;;;;1.95;0.85;;;;;;;8.77;69.01;100482.03;5071817;28;20055;-65
2023/03/15 13:19:11;;;;;;;1.50;0.90;;;;;;;8.79;70.11;100476.56;5071941;28;20052;-64
2023/03/15 13:22:09;;;;;;;1.33;0.85;;;;;;;8.97;68.12;100472.88;5071847;28;20029;-65
2023/03/15 13:24:38;;;;;;;0.93;0.90;;;;;;;8.88;67.35;100480.97;5071247;28;20067;-65
2023/03/15 13:27:22;;;;;;;0.47;0.40;;;;;;;8.81;67.13;100475.44;5064243;28;20032;-64
2023/03/15 13:29:47;;;;;;;2.88;0.68;;;;;;;8.77;67.17;100484.69;5063656;28;20029;-64
2023/03/15 13:32:22;;;;;;;0.93;0.82;;;;;;;8.21;75.60;100488.53;5054045;28;20043;-64
2023/03/15 13:34:48;;;;;;;0.93;0.77;;;;;;;8.09;76.55;100497.72;5054445;28;20041;-64
2023/03/15 13:37:20;;;;;;;2.30;0.80;;;;;;;7.26;83.52;100499.59;5052752;28;20068;-64
2023/03/15 13:40:01;;;;;;;2.33;1.10;;;;;;;6.97;88.06;100495.19;5051839;28;20041;-64
2023/03/15 13:42:27;;;;;;;0.88;0.82;;;;;;;6.69;91.06;100507.53;5065841;28;20037;-64
2023/03/15 13:45:22;;;;;;;1.45;0.93;;;;;;;6.63;90.70;100500.16;5075624;28;20048;-63
2023/03/15 13:47:47;;;;;;;0.57;0.50;;;;;;;6.55;92.35;100497.38;5061746;28;20059;-65
2023/03/15 13:50:15;;;;;;;1.98;1.20;;;;;;;6.57;90.92;100495.44;5075366;28;20028;-64
2023/03/15 13:52:41;;;;;;;1.58;1.15;;;;;;;6.57;91.97;100489.31;5071454;28;20041;-64
2023/03/15 13:55:11;;;;;;;3.03;0.80;;;;;;;6.70;91.99;100495.97;5073536;28;20037;-64
2023/03/15 13:57:37;;;;;;;0.93;0.82;;;;;;;6.59;95.31;100488.19;5074225;28;20047;-64
2023/03/15 14:00:10;;;;;;;1.30;0.98;;;;;;;6.45;100.00;100485.97;5075264;28;20040;-63
2023/03/15 14:02:41;;;;;;;0.90;0.85;;;;;;;6.65;98.92;100490.28;5075027;28;20515;-64
2023/03/15 14:05:17;;;;;;;0.88;0.80;;;;;;;6.57;99.80;100489.31;5075131;28;20033;-64
2023/03/15 14:07:48;;;;;;;0.85;0.80;;;;;;;6.45;100.00;100493.91;5075175;28;20060;-62
2023/03/15 14:10:28;;;;;;;1.67;0.68;;;;;;;6.23;99.35;100508.25;5075150;28;20033;-64
2023/03/15 14:12:56;;;;;;;1.00;0.90;;;;;;;6.23;100.00;100506.44;5074755;28;20500;-65
2023/03/15 14:15:34;;;;;;;0.65;0.65;;;;;;;6.24;100.00;100510.75;5074912;28;20032;-64
2023/03/15 14:18:17;;;;;;;2.38;0.70;;;;;;;6.06;100.00;100507.13;5073734;28;20036;-64
2023/03/15 14:20:52;;;;;;;0.88;0.70;;;;;;;6.09;98.07;100498.09;5074907;28;20041;-64
2023/03/15 14:23:23;;;;;;;1.17;0.70;;;;;;;6.12;95.83;100488.06;5073509;28;20035;-65
2023/03/15 14:25:53;;;;;;;0.68;0.60;;;;;;;6.19;95.17;100494.50;5074891;28;20044;-64
2023/03/15 14:28:20;;;;;;;0.93;0.85;;;;;;;6.24;93.30;100502.81;5074839;28;20094;-64
2023/03/15 14:30:54;;;;;;;1.73;0.90;;;;;;;6.32;94.84;100501.28;5074743;28;20123;-63
2023/03/15 14:33:36;;;;;;;0.88;0.80;;;;;;;6.31;95.37;100511.03;5074451;28;20535;-65
2023/03/15 14:36:06;;;;;;;0.95;0.82;;;;;;;6.39;97.89;100507.69;5074634;28;20036;-63
2023/03/15 14:38:35;;;;;;;0.80;0.80;;;;;;;6.29;97.43;100512.16;5074563;28;20032;-65
2023/03/15 14:41:18;;;;;;;0.68;0.68;;;;;;;6.17;97.02;100516.75;5074608;28;20132;-65
2023/03/15 14:43:43;;;;;;;0.68;0.68;;;;;;;6.04;98.60;100509.09;5074156;28;20121;-65
2023/03/15 14:46:09;;;;;;;1.35;0.98;;;;;;;6.32;98.35;100511.88;5074357;28;20483;-64
2023/03/15 14:48:34;;;;;;;0.57;0.47;;;;;;;6.42;95.47;100520.66;5074535;28;20429;-64
2023/03/15 14:50:59;;;;;;;0.70;0.70;;;;;;;6.46;94.14;100519.41;5073232;28;20037;-64
2023/03/15 14:53:34;;;;;;;0.70;0.60;;;;;;;6.49;92.71;100517.31;5073671;28;20060;-65
2023/03/15 14:56:00;;;;;;;1.08;0.68;;;;;;;6.50;91.38;100518.13;5074318;28;20303;-64
2023/03/15 14:58:25;;;;;;;0.88;0.60;;;;;;;6.27;91.71;100519.41;5074292;28;20063;-63
2023/03/15 15:00:54;;;;;;;0.40;0.40;;;;;;;6.21;93.42;100521.63;5074167;28;20033;-64
2023/03/15 15:03:30;;;;;;;0.50;0.50;;;;;;;6.23;93.95;100518.84;5073716;28;20032;-64
2023/03/15 15:05:55;;;;;;;0.73;0.57;;;;;;;6.30;94.65;100517.31;5074095;28;20041;-65
2023/03/15 15:08:21;;;;;;;0.88;0.55;;;;;;;6.23;95.74;100514.38;5074085;28;20028;-64
2023/03/15 15:10:49;;;;;;;0.50;0.50;;;;;;;6.19;94.20;100528.03;5073986;28;20032;-64
2023/03/15 15:13:19;;;;;;;0.70;0.70;;;;;;;6.29;94.71;100525.41;5073594;28;20064;-65
2023/03/15 15:15:44;;;;;;;1.90;0.70;;;;;;;6.28;95.90;100518.44;5073860;28;20111;-63
2023/03/15 15:18:10;;;;;;;1.00;0.85;;;;;;;6.35;95.44;100532.78;5074190;28;20461;-65
2023/03/15 15:20:35;;;;;;;0.63;0.60;;;;;;;6.35;97.74;100530.97;5073865;28;20040;-65
2023/03/15 15:23:01;;;;;;;1.02;0.70;;;;;;;6.29;95.07;100528.03;5073533;28;20060;-64
2023/03/15 15:25:29;;;;;;;1.00;0.90;;;;;;;6.36;94.43;100522.06;5073715;28;20032;-65
2023/03/15 15:27:55;;;;;;;4.22;0.85;;;;;;;6.40;93.25;100525.28;5073692;28;20174;-63
2023/03/15 15:30:24;;;;;;;0.80;0.77;;;;;;;6.39;96.49;100521.78;5073876;28;20082;-65
2023/03/15 15:32:50;;;;;;;1.70;0.90;;;;;;;6.40;96.48;100519.97;5073197;28;20055;-63
2023/03/15 15:35:17;;;;;;;0.77;0.77;;;;;;;6.47;97.17;100524.56;5073504;28;20167;-64
2023/03/15 15:37:45;;;;;;;4.13;0.98;;;;;;;6.39;94.43;100523.56;5073470;28;20059;-63
2023/03/15 15:40:32;;;;;;;1.75;0.90;;;;;;;6.45;96.80;100520.38;5072188;28;20040;-65
2023/03/15 15:42:59;;;;;;;1.27;0.90;;;;;;;6.46;96.30;100525.53;5072776;28;20068;-64
2023/03/15 15:45:24;;;;;;;1.65;1.23;;;;;;;6.40;94.68;100525.28;5073254;28;20401;-65
2023/03/15 15:47:50;;;;;;;2.35;0.98;;;;;;;6.45;95.26;100530.94;5073192;28;20035;-65
2023/03/15 15:50:18;;;;;;;1.30;1.10;;;;;;;6.47;95.30;100531.66;5073208;28;20162;-65
2023/03/15 15:52:47;;;;;;;1.20;1.02;;;;;;;6.37;94.40;100549.34;5072723;28;20040;-64
2023/03/15 15:55:16;;;;;;;1.30;0.90;;;;;;;6.45;96.09;100546.84;5072912;28;20037;-64
2023/03/15 15:57:45;;;;;;;0.90;0.90;;;;;;;6.50;95.71;100552.56;5073159;28;20047;-63
2023/03/15 16:00:15;;;;;;;1.13;0.90;;;;;;;6.51;96.30;100548.91;5073023;28;20068;-65
2023/03/15 16:02:40;;;;;;;1.13;0.80;;;;;;;6.57;96.68;100552.81;5071378;28;20159;-64
2023/03/15 16:05:06;;;;;;;0.98;0.95;;;;;;;6.47;93.24;100550.19;5071967;28;20116;-64
2023/03/15 16:07:32;;;;;;;0.75;0.75;;;;;;;6.54;92.20;100553.94;5072810;28;20499;-63
2023/03/15 16:09:58;;;;;;;1.33;0.70;;;;;;;6.55;93.15;100554.78;5072854;28;20037;-64
2023/03/15 16:12:24;;;;;;;2.10;0.93;;;;;;;6.53;94.05;100560.22;5072418;28;20401;-63
2023/03/15 16:14:50;;;;;;;3.42;0.80;;;;;;;6.47;93.74;100556.31;5072701;28;20486;-63
2023/03/15 16:17:21;;;;;;;0.50;0.50;;;;;;;6.44;93.50;100559.22;5072650;28;20036;-65
2023/03/15 16:19:48;;;;;;;0.70;0.52;;;;;;;6.42;94.33;100557.72;5072587;28;20150;-64
2023/03/15 16:22:14;;;;;;;0.65;0.65;;;;;;;6.40;94.74;100557.84;5072667;28;20040;-65
2023/03/15 16:24:44;;;;;;;0.68;0.65;;;;;;;6.42;94.06;100561.19;5072457;28;20078;-64
2023/03/15 16:27:20;;;;;;;1.35;1.10;;;;;;;6.39;92.21;100563.25;5072535;28;20044;-64
2023/03/15 16:29:48;;;;;;;1.00;0.65;;;;;;;6.34;92.48;100557.56;5072736;28;20382;-64
2023/03/15 16:32:16;;;;;;;2.47;1.00;;;;;;;6.30;93.56;100564.09;5072088;28;20025;-65
2023/03/15 16:34:41;;;;;;;1.58;1.33;;;;;;;6.23;94.30;100556.72;5072281;28;20067;-64
2023/03/15 16:37:15;;;;;;;1.02;0.82;;;;;;;6.23;93.96;100554.06;5070882;28;20068;-64
2023/03/15 16:39:43;;;;;;;1.40;0.85;;;;;;;6.17;94.73;100553.78;5072234;28;20036;-65
2023/03/15 16:42:14;;;;;;;4.10;1.33;;;;;;;6.14;95.31;100551.44;5072147;28;20129;-64
2023/03/15 16:44:40;;;;;;;1.60;1.40;;;;;;;6.09;95.68;100561.56;5072147;28;20481;-65
2023/03/15 16:47:06;;;;;;;0.90;0.90;;;;;;;6.00;96.72;100555.31;5071874;28;20043;-64
2023/03/15 16:49:31;;;;;;;3.05;1.17;;;;;;;6.04;96.93;100564.63;5070954;28;20072;-66
2023/03/15 16:51:58;;;;;;;1.63;0.88;;;;;;;6.05;96.92;100568.09;5072153;28;20079;-64
2023/03/15 16:54:23;;;;;;;3.65;1.27;;;;;;;6.08;97.27;100576.59;5071897;28;20036;-63
2023/03/15 16:56:49;;;;;;;0.70;0.70;;;;;;;6.06;97.80;100570.59;5072133;28;20528;-63
2023/03/15 16:59:16;;;;;;;1.10;1.00;;;;;;;6.12;96.88;100583.28;5072072;28;20040;-64
2023/03/15 17:01:46;;;;;;;1.00;0.90;;;;;;;6.03;95.41;100578.81;5071987;28;20072;-63
2023/03/15 17:04:13;;;;;;;3.55;0.95;;;;;;;6.05;96.58;100583.97;5070391;28;20047;-62
2023/03/15 17:06:39;;;;;;;1.02;0.93;;;;;;;6.01;95.82;100585.22;5071918;28;20097;-64
2023/03/15 17:09:13;;;;;;;2.22;0.93;;;;;;;6.03;96.99;100586.75;5071992;28;20400;-64
2023/03/15 17:11:41;;;;;;;1.30;1.20;;;;;;;5.97;96.06;100582.00;5071886;28;20043;-64